createdAt,value
2022-09-04T00:01:15.850Z,99.90
2022-09-04T00:03:52.527Z,99.90
2022-09-04T00:06:27.058Z,99.90
2022-09-04T00:09:06.450Z,99.90
2022-09-04T00:11:45.149Z,99.90
2022-09-04T00:14:18.850Z,99.90
2022-09-04T00:16:52.308Z,99.90
2022-09-04T00:19:32.248Z,99.90
2022-09-04T00:22:02.627Z,99.90
2022-09-04T00:24:36.357Z,99.90
2022-09-04T00:27:10.842Z,99.90
2022-09-04T00:29:48.657Z,99.90
2022-09-04T00:32:25.753Z,99.90
2022-09-04T00:35:08.169Z,99.90
2022-09-04T00:37:40.282Z,99.90
2022-09-04T00:40:17.383Z,99.90
2022-09-04T00:43:08.583Z,99.90
2022-09-04T00:45:53.787Z,99.90
2022-09-04T00:48:41.210Z,99.90
2022-09-04T00:51:34.718Z,99.90
2022-09-04T00:54:27.155Z,99.90
2022-09-04T00:57:45.648Z,99.90
2022-09-04T01:00:15.904Z,99.90
2022-09-04T01:03:13.620Z,99.90
2022-09-04T01:06:05.225Z,99.90
2022-09-04T01:08:44.065Z,99.90
2022-09-04T01:11:19.227Z,99.90
2022-09-04T01:13:55.570Z,99.90
2022-09-04T01:16:30.429Z,99.90
2022-09-04T01:19:03.745Z,99.90
2022-09-04T01:21:55.186Z,99.90
2022-09-04T01:24:52.978Z,99.90
2022-09-04T01:27:27.958Z,99.90
2022-09-04T01:30:06.869Z,99.90
2022-09-04T01:32:46.786Z,99.90
2022-09-04T01:35:25.272Z,99.90
2022-09-04T01:38:03.473Z,99.90
2022-09-04T01:40:40.898Z,99.90
2022-09-04T01:43:12.697Z,99.90
2022-09-04T01:46:28.497Z,99.90
2022-09-04T01:49:05.793Z,99.90
2022-09-04T01:51:40.494Z,99.90
2022-09-04T01:54:21.142Z,99.90
2022-09-04T01:56:59.605Z,99.90
2022-09-04T01:59:34.027Z,99.90
2022-09-04T02:02:12.029Z,99.90
2022-09-04T02:04:55.025Z,99.90
2022-09-04T02:07:32.809Z,99.90
2022-09-04T02:10:09.517Z,99.90
2022-09-04T02:12:47.921Z,99.90
2022-09-04T02:15:29.651Z,99.90
2022-09-04T02:18:07.247Z,99.90
2022-09-04T02:20:36.191Z,99.90
2022-09-04T02:23:13.689Z,99.90
2022-09-04T02:25:50.358Z,99.90
2022-09-04T02:28:27.721Z,99.90
2022-09-04T02:31:06.695Z,99.90
2022-09-04T02:33:43.250Z,99.90
2022-09-04T02:36:18.513Z,99.90
2022-09-04T02:38:57.149Z,99.90
2022-09-04T02:41:35.562Z,99.90
2022-09-04T02:44:20.209Z,99.90
2022-09-04T02:47:01.647Z,99.90
2022-09-04T02:49:38.831Z,99.90
2022-09-04T02:52:19.294Z,99.90
2022-09-04T02:55:15.230Z,99.90
2022-09-04T02:57:56.704Z,99.90
2022-09-04T03:00:40.383Z,99.90
2022-09-04T03:03:15.941Z,99.90
2022-09-04T03:05:52.281Z,99.90
2022-09-04T03:08:24.968Z,99.90
2022-09-04T03:10:57.487Z,99.90
2022-09-04T03:13:33.973Z,99.90
2022-09-04T03:16:08.036Z,99.90
2022-09-04T03:18:59.646Z,99.90
2022-09-04T03:21:35.364Z,99.90
2022-09-04T03:24:10.500Z,99.90
2022-09-04T03:26:43.055Z,99.90
2022-09-04T03:29:24.772Z,99.90
2022-09-04T03:32:00.177Z,99.90
2022-09-04T03:34:39.764Z,99.90
2022-09-04T03:37:23.271Z,99.90
2022-09-04T03:40:03.156Z,99.90
2022-09-04T03:42:44.550Z,99.90
2022-09-04T03:45:23.314Z,99.90
2022-09-04T03:48:06.301Z,99.90
2022-09-04T03:50:45.643Z,99.90
2022-09-04T03:53:21.622Z,99.90
2022-09-04T03:56:16.974Z,99.90
2022-09-04T03:58:52.702Z,99.90
2022-09-04T04:01:34.702Z,99.90
2022-09-04T04:04:35.848Z,99.90
2022-09-04T04:07:15.560Z,99.90
2022-09-04T04:10:00.010Z,99.90
2022-09-04T04:12:51.548Z,99.90
2022-09-04T04:15:33.812Z,99.90
2022-09-04T04:18:23.125Z,99.90
2022-09-04T04:21:01.384Z,99.90
2022-09-04T04:24:04.764Z,99.90
2022-09-04T04:26:42.073Z,99.90
2022-09-04T04:29:26.840Z,99.90
2022-09-04T04:32:13.799Z,99.90
2022-09-04T04:34:55.596Z,99.90
2022-09-04T04:37:36.054Z,99.90
2022-09-04T04:40:15.242Z,99.90
2022-09-04T04:42:53.376Z,99.90
2022-09-04T04:45:46.890Z,99.90
2022-09-04T04:48:48.645Z,99.90
2022-09-04T04:51:34.477Z,99.90
2022-09-04T04:54:18.461Z,99.90
2022-09-04T04:56:57.169Z,99.90
2022-09-04T04:59:35.326Z,99.90
2022-09-04T05:02:14.571Z,99.90
2022-09-04T05:04:52.538Z,99.90
2022-09-04T05:07:37.414Z,99.90
2022-09-04T05:10:16.130Z,99.90
2022-09-04T05:13:10.174Z,99.90
2022-09-04T05:16:07.561Z,99.90
2022-09-04T05:18:37.792Z,99.90
2022-09-04T05:21:13.835Z,99.90
2022-09-04T05:23:53.388Z,99.90
2022-09-04T05:26:30.229Z,99.90
2022-09-04T05:29:06.598Z,99.90
2022-09-04T05:31:46.724Z,99.90
2022-09-04T05:34:28.093Z,99.90
2022-09-04T05:37:09.186Z,99.90
2022-09-04T05:39:49.535Z,99.90
2022-09-04T05:42:57.140Z,99.90
2022-09-04T05:45:36.914Z,99.90
2022-09-04T05:48:21.345Z,99.90
2022-09-04T05:51:23.588Z,99.90
2022-09-04T05:54:23.461Z,99.90
2022-09-04T05:57:02.514Z,99.90
2022-09-04T05:59:57.972Z,99.90
2022-09-04T06:02:55.590Z,99.90
2022-09-04T06:05:32.928Z,99.90
2022-09-04T06:08:08.777Z,99.90
2022-09-04T06:10:48.764Z,99.90
2022-09-04T06:13:46.626Z,99.90
2022-09-04T06:16:32.917Z,99.90
2022-09-04T06:19:35.351Z,99.90
2022-09-04T06:22:17.954Z,99.90
2022-09-04T06:25:13.769Z,99.90
2022-09-04T06:28:30.147Z,99.90
2022-09-04T06:31:10.979Z,99.90
2022-09-04T06:33:59.061Z,99.90
2022-09-04T06:36:41.996Z,99.90
2022-09-04T06:39:50.921Z,99.90
2022-09-04T06:42:34.159Z,99.90
2022-09-04T06:45:20.653Z,99.90
2022-09-04T06:48:06.566Z,99.90
2022-09-04T06:50:44.920Z,99.90
2022-09-04T06:53:23.267Z,99.90
2022-09-04T06:56:04.491Z,99.90
2022-09-04T06:59:07.481Z,99.90
2022-09-04T07:01:46.923Z,99.90
2022-09-04T07:04:29.535Z,99.90
2022-09-04T07:07:08.746Z,99.90
2022-09-04T07:09:43.122Z,99.90
2022-09-04T07:12:52.625Z,99.90
2022-09-04T07:15:53.442Z,99.90
2022-09-04T07:18:41.629Z,99.90
2022-09-04T07:21:21.068Z,99.90
2022-09-04T07:23:57.762Z,99.90
2022-09-04T07:26:38.330Z,99.90
2022-09-04T07:29:34.750Z,99.90
2022-09-04T07:32:08.695Z,99.90
2022-09-04T07:34:44.715Z,99.90
2022-09-04T07:37:25.117Z,99.90
2022-09-04T07:40:03.714Z,99.90
2022-09-04T07:42:45.812Z,99.90
2022-09-04T07:45:32.456Z,99.90
2022-09-04T07:48:14.041Z,99.90
2022-09-04T07:51:03.681Z,99.90
2022-09-04T07:53:55.440Z,99.90
2022-09-04T07:56:31.464Z,99.90
2022-09-04T07:59:31.211Z,99.90
2022-09-04T08:02:28.777Z,99.90
2022-09-04T08:05:28.553Z,99.90
2022-09-04T08:08:45.602Z,99.90
2022-09-04T08:11:31.903Z,99.90
2022-09-04T08:14:16.833Z,99.90
2022-09-04T08:16:56.804Z,99.90
2022-09-04T08:19:42.913Z,99.90
2022-09-04T08:22:20.160Z,99.90
2022-09-04T08:25:09.168Z,99.90
2022-09-04T08:28:19.233Z,99.90
2022-09-04T08:30:56.271Z,99.90
2022-09-04T08:34:07.770Z,99.90
2022-09-04T08:36:45.548Z,99.90
2022-09-04T08:39:20.587Z,99.90
2022-09-04T08:42:17.971Z,99.90
2022-09-04T08:45:28.161Z,99.90
2022-09-04T08:48:42.030Z,99.90
2022-09-04T08:51:38.337Z,99.90
2022-09-04T08:54:32.380Z,99.90
2022-09-04T08:57:29.718Z,99.90
2022-09-04T09:00:09.987Z,99.90
2022-09-04T09:03:23.970Z,99.90
2022-09-04T09:06:27.656Z,99.90
2022-09-04T09:09:19.657Z,99.90
2022-09-04T09:12:24.614Z,99.90
2022-09-04T09:15:28.102Z,99.90
2022-09-04T09:18:03.646Z,99.90
2022-09-04T09:20:45.272Z,99.90
2022-09-04T09:23:21.480Z,99.90
2022-09-04T09:26:20.219Z,99.90
2022-09-04T09:29:26.965Z,99.90
2022-09-04T09:32:20.729Z,99.90
2022-09-04T09:35:27.840Z,99.90
2022-09-04T09:38:28.592Z,99.90
2022-09-04T09:41:37.354Z,99.90
2022-09-04T09:44:41.701Z,99.90
2022-09-04T09:47:53.779Z,99.90
2022-09-04T09:50:47.790Z,99.90
2022-09-04T09:53:49.811Z,99.90
2022-09-04T09:56:42.404Z,99.90
2022-09-04T10:00:07.670Z,99.90
2022-09-04T10:03:29.705Z,99.90
2022-09-04T10:06:23.181Z,99.90
2022-09-04T10:09:34.650Z,99.90
2022-09-04T10:13:06.099Z,99.90
2022-09-04T10:15:59.618Z,99.90
2022-09-04T10:19:04.927Z,99.90
2022-09-04T10:21:56.780Z,99.90
2022-09-04T10:25:00.803Z,98.90
2022-09-04T10:28:06.906Z,97.30
2022-09-04T10:30:59.438Z,95.30
2022-09-04T10:33:42.335Z,93.90
2022-09-04T10:36:23.115Z,89.90
2022-09-04T10:39:25.985Z,85.80
2022-09-04T10:42:12.591Z,83.00
2022-09-04T10:44:51.892Z,82.30
2022-09-04T10:47:35.881Z,81.10
2022-09-04T10:50:26.958Z,85.30
2022-09-04T10:53:16.126Z,81.70
2022-09-04T10:56:16.339Z,89.70
2022-09-04T10:59:33.604Z,95.50
2022-09-04T11:02:33.656Z,97.80
2022-09-04T11:05:20.494Z,99.90
2022-09-04T11:08:25.397Z,99.90
2022-09-04T11:11:09.778Z,99.90
2022-09-04T11:14:03.728Z,99.90
2022-09-04T11:17:19.759Z,95.50
2022-09-04T11:20:37.002Z,91.30
2022-09-04T11:23:38.989Z,85.20
2022-09-04T11:26:54.952Z,88.10
2022-09-04T11:29:56.327Z,85.50
2022-09-04T11:32:53.544Z,85.00
2022-09-04T11:35:42.582Z,84.00
2022-09-04T11:38:18.589Z,81.20
2022-09-04T11:41:51.029Z,77.60
2022-09-04T11:45:16.900Z,77.00
2022-09-04T11:48:03.809Z,78.00
2022-09-04T11:50:57.259Z,72.40
2022-09-04T11:53:49.181Z,74.40
2022-09-04T11:56:43.573Z,73.20
2022-09-04T11:59:39.642Z,70.90
2022-09-04T12:02:34.449Z,70.80
2022-09-04T12:05:20.305Z,67.30
2022-09-04T12:08:07.254Z,65.50
2022-09-04T12:10:56.063Z,64.40
2022-09-04T12:13:52.442Z,71.40
2022-09-04T12:16:47.410Z,77.50
2022-09-04T12:19:34.442Z,82.50
2022-09-04T12:22:36.054Z,88.80
2022-09-04T12:25:35.123Z,93.70
2022-09-04T12:28:38.132Z,82.20
2022-09-04T12:31:28.104Z,72.60
2022-09-04T12:34:23.498Z,71.10
2022-09-04T12:37:19.919Z,65.80
2022-09-04T12:40:14.369Z,63.70
2022-09-04T12:42:49.922Z,61.00
2022-09-04T12:45:27.195Z,60.40
2022-09-04T12:48:08.544Z,58.20
2022-09-04T12:50:44.545Z,59.70
2022-09-04T12:53:45.009Z,58.10
2022-09-04T12:56:23.010Z,58.20
2022-09-04T12:59:16.198Z,59.20
2022-09-04T13:01:59.711Z,67.00
2022-09-04T13:04:39.915Z,69.80
2022-09-04T13:07:26.567Z,69.50
2022-09-04T13:10:07.607Z,68.30
2022-09-04T13:12:46.708Z,76.60
2022-09-04T13:15:28.737Z,82.30
2022-09-04T13:18:08.787Z,89.80
2022-09-04T13:20:49.387Z,94.30
2022-09-04T13:23:36.977Z,95.00
2022-09-04T13:26:25.927Z,99.20
2022-09-04T13:29:08.901Z,99.90
2022-09-04T13:31:54.032Z,99.90
2022-09-04T13:34:28.465Z,99.90
2022-09-04T13:37:08.281Z,99.90
2022-09-04T13:40:02.239Z,99.90
2022-09-04T13:43:09.887Z,99.90
2022-09-04T13:45:44.735Z,99.90
2022-09-04T13:48:17.989Z,99.90
2022-09-04T13:50:52.372Z,99.90
2022-09-04T13:53:25.557Z,99.90
2022-09-04T13:55:58.881Z,99.90
2022-09-04T13:58:34.043Z,99.90
2022-09-04T14:01:07.327Z,99.90
2022-09-04T14:03:45.698Z,99.90
2022-09-04T14:06:17.098Z,99.90
2022-09-04T14:09:05.153Z,99.90
2022-09-04T14:12:01.302Z,99.90
2022-09-04T14:15:05.660Z,99.90
2022-09-04T14:17:39.611Z,99.90
2022-09-04T14:20:17.515Z,99.90
2022-09-04T14:22:58.164Z,99.90
2022-09-04T14:25:34.555Z,99.90
2022-09-04T14:28:13.348Z,99.90
2022-09-04T14:30:51.965Z,99.90
2022-09-04T14:33:35.571Z,99.90
2022-09-04T14:36:21.871Z,99.90
2022-09-04T14:39:07.969Z,99.90
2022-09-04T14:41:47.372Z,99.90
2022-09-04T14:44:30.233Z,99.90
2022-09-04T14:47:12.189Z,99.90
2022-09-04T14:49:47.576Z,99.90
2022-09-04T14:52:19.845Z,99.90
2022-09-04T14:54:53.451Z,99.90
2022-09-04T14:57:29.961Z,99.90
2022-09-04T15:00:06.489Z,99.90
2022-09-04T15:02:42.313Z,99.90
2022-09-04T15:05:21.444Z,99.90
2022-09-04T15:07:56.321Z,99.90
2022-09-04T15:10:29.544Z,99.90
2022-09-04T15:13:30.245Z,99.90
2022-09-04T15:16:09.383Z,99.90
2022-09-04T15:18:51.721Z,99.90
2022-09-04T15:21:26.017Z,99.90
2022-09-04T15:24:01.862Z,99.90
2022-09-04T15:26:37.359Z,99.90
2022-09-04T15:29:14.306Z,99.90
2022-09-04T15:31:44.127Z,99.90
2022-09-04T15:34:21.599Z,99.90
2022-09-04T15:36:51.749Z,99.90
2022-09-04T15:39:30.584Z,99.90
2022-09-04T15:41:59.457Z,99.90
2022-09-04T15:44:34.377Z,99.90
2022-09-04T15:47:08.873Z,99.90
2022-09-04T15:49:47.904Z,99.90
2022-09-04T15:52:31.460Z,99.90
2022-09-04T15:55:19.087Z,99.90
2022-09-04T15:57:56.436Z,99.90
2022-09-04T16:00:27.370Z,99.90
2022-09-04T16:03:01.573Z,99.90
2022-09-04T16:05:41.638Z,99.90
2022-09-04T16:08:21.693Z,99.90
2022-09-04T16:10:58.406Z,99.90
2022-09-04T16:13:46.617Z,99.90
2022-09-04T16:16:20.385Z,99.90
2022-09-04T16:19:03.489Z,99.90
2022-09-04T16:21:42.933Z,99.90
2022-09-04T16:24:17.129Z,99.90
2022-09-04T16:26:50.378Z,99.90
2022-09-04T16:29:36.853Z,99.90
2022-09-04T16:32:09.818Z,99.90
2022-09-04T16:34:47.548Z,99.90
2022-09-04T16:37:21.752Z,99.90
2022-09-04T16:40:04.906Z,99.90
2022-09-04T16:42:40.313Z,99.90
2022-09-04T16:45:15.856Z,99.90
2022-09-04T16:47:48.665Z,99.90
2022-09-04T16:50:25.347Z,99.90
2022-09-04T16:53:13.601Z,99.90
2022-09-04T16:55:48.326Z,99.90
2022-09-04T16:58:35.625Z,99.90
2022-09-04T17:01:14.710Z,99.90
2022-09-04T17:04:12.608Z,99.90
2022-09-04T17:06:56.697Z,99.90
2022-09-04T17:09:32.178Z,99.90
2022-09-04T17:12:07.247Z,99.90
2022-09-04T17:14:42.218Z,99.90
2022-09-04T17:17:31.351Z,99.90
2022-09-04T17:20:06.066Z,99.90
2022-09-04T17:28:57.069Z,99.90
2022-09-04T17:29:08.630Z,99.90
2022-09-04T17:29:16.665Z,99.90
2022-09-04T17:31:33.274Z,99.90
2022-09-04T17:40:32.569Z,99.90
2022-09-04T17:40:48.438Z,99.90
2022-09-04T17:40:52.365Z,99.90
2022-09-04T17:43:15.899Z,99.90
2022-09-04T17:45:51.765Z,99.90
2022-09-04T17:48:25.130Z,99.90
2022-09-04T17:50:57.209Z,99.90
2022-09-04T17:53:33.751Z,99.90
2022-09-04T17:56:11.920Z,99.90
2022-09-04T17:58:50.426Z,99.90
2022-09-04T18:01:23.384Z,99.90
2022-09-04T18:04:22.433Z,99.90
2022-09-04T18:07:00.597Z,99.90
2022-09-04T18:10:00.989Z,99.90
2022-09-04T18:12:35.419Z,99.90
2022-09-04T18:15:34.368Z,99.90
2022-09-04T18:18:09.254Z,99.90
2022-09-04T18:20:42.498Z,99.90
2022-09-04T18:23:52.086Z,99.90
2022-09-04T18:26:40.064Z,99.90
2022-09-04T18:31:55.797Z,99.90
2022-09-04T18:37:11.415Z,99.90
2022-09-04T18:37:19.449Z,99.90
2022-09-04T18:38:46.272Z,99.90
2022-09-04T18:47:41.669Z,99.90
2022-09-04T18:50:23.675Z,99.90
2022-09-04T18:50:45.858Z,99.90
2022-09-04T18:50:48.706Z,99.90
2022-09-04T18:53:09.954Z,99.90
2022-09-04T18:55:45.740Z,99.90
2022-09-04T18:58:37.209Z,99.90
2022-09-04T19:01:14.476Z,99.90
2022-09-04T19:03:47.471Z,99.90
2022-09-04T19:06:29.130Z,99.90
2022-09-04T19:08:59.561Z,99.90
2022-09-04T19:11:32.758Z,99.90
2022-09-04T19:14:10.028Z,99.90
2022-09-04T19:16:42.235Z,99.90
2022-09-04T19:19:17.564Z,99.90
2022-09-04T19:21:57.863Z,99.90
2022-09-04T19:24:34.568Z,99.90
2022-09-04T19:27:27.834Z,99.90
2022-09-04T19:30:18.795Z,99.90
2022-09-04T19:33:10.401Z,99.90
2022-09-04T19:35:45.529Z,99.90
2022-09-04T19:45:02.333Z,99.90
2022-09-04T19:46:06.472Z,99.90
2022-09-04T19:46:17.427Z,99.90
2022-09-04T19:47:29.107Z,99.90
2022-09-04T19:53:17.690Z,99.90
2022-09-04T19:53:30.979Z,99.90
2022-09-04T19:56:05.026Z,99.90
2022-09-04T19:58:40.174Z,99.90
2022-09-04T20:01:16.196Z,99.90
2022-09-04T20:03:49.899Z,99.90
2022-09-04T20:06:26.789Z,99.90
2022-09-04T20:09:03.907Z,99.90
2022-09-04T20:11:40.251Z,99.90
2022-09-04T20:14:20.601Z,99.90
2022-09-04T20:17:04.902Z,99.90
2022-09-04T20:19:40.549Z,99.90
2022-09-04T20:22:25.963Z,99.90
2022-09-04T20:25:01.337Z,99.90
2022-09-04T20:27:36.578Z,99.90
2022-09-04T20:30:12.135Z,99.90
2022-09-04T20:32:46.852Z,99.90
2022-09-04T20:35:34.808Z,99.90
2022-09-04T20:38:22.943Z,99.90
2022-09-04T20:40:56.035Z,99.90
2022-09-04T20:43:33.174Z,99.90
2022-09-04T20:49:08.182Z,99.90
2022-09-04T20:52:52.613Z,99.90
2022-09-04T20:52:59.017Z,99.90
2022-09-04T20:55:15.426Z,99.90
2022-09-04T21:01:35.444Z,99.90
2022-09-04T21:03:21.231Z,99.90
2022-09-04T21:04:05.212Z,99.90
2022-09-04T21:06:39.987Z,99.90
2022-09-04T21:09:23.840Z,99.90
2022-09-04T21:11:56.473Z,99.90
2022-09-04T21:14:45.978Z,99.90
2022-09-04T21:17:52.481Z,99.90
2022-09-04T21:20:41.612Z,99.90
2022-09-04T21:24:07.927Z,99.90
2022-09-04T21:26:55.488Z,99.90
2022-09-04T21:29:53.848Z,99.90
2022-09-04T21:32:35.043Z,99.90
2022-09-04T21:35:09.166Z,99.90
2022-09-04T21:37:47.905Z,99.90
2022-09-04T21:40:52.566Z,99.90
2022-09-04T21:44:02.632Z,99.90
2022-09-04T21:46:55.500Z,99.90
2022-09-04T21:50:13.829Z,99.90
2022-09-04T21:53:04.154Z,99.90
2022-09-04T21:59:22.662Z,99.90
2022-09-04T22:02:28.551Z,99.90
2022-09-04T22:02:38.113Z,99.90
2022-09-04T22:05:22.747Z,99.90
2022-09-04T22:13:27.548Z,99.90
2022-09-04T22:13:40.329Z,99.90
2022-09-04T22:14:07.906Z,99.90
2022-09-04T22:16:54.538Z,99.90
2022-09-04T22:19:56.328Z,99.90
2022-09-04T22:22:50.974Z,99.90
2022-09-04T22:25:45.697Z,99.90
2022-09-04T22:28:43.527Z,99.90
2022-09-04T22:31:39.296Z,99.90
2022-09-04T22:34:51.966Z,99.90
2022-09-04T22:38:13.244Z,99.90
2022-09-04T22:40:56.195Z,99.90
2022-09-04T22:43:27.432Z,99.90
2022-09-04T22:46:10.970Z,99.90
2022-09-04T22:49:13.462Z,99.90
2022-09-04T22:52:26.573Z,99.90
2022-09-04T22:55:39.067Z,99.90
2022-09-04T22:58:25.361Z,99.90
2022-09-04T23:01:07.770Z,99.90
2022-09-04T23:03:50.930Z,99.90
2022-09-04T23:06:46.730Z,99.90
2022-09-04T23:13:52.519Z,99.90
2022-09-04T23:13:53.692Z,99.90
2022-09-04T23:17:00.949Z,99.90
2022-09-04T23:24:53.474Z,99.90
2022-09-04T23:26:42.069Z,99.90
2022-09-04T23:26:59.942Z,99.90
2022-09-04T23:29:51.361Z,99.90
2022-09-04T23:32:48.530Z,99.90
2022-09-04T23:35:28.506Z,99.90
2022-09-04T23:38:12.716Z,99.90
2022-09-04T23:40:44.238Z,99.90
2022-09-04T23:43:50.090Z,99.90
2022-09-04T23:46:43.809Z,99.90
2022-09-04T23:49:47.698Z,99.90
2022-09-04T23:52:27.288Z,99.90
2022-09-04T23:55:18.085Z,99.90
2022-09-04T23:57:52.944Z,99.90
